Time;durP1;ratioP1;P1;durP2;ratioP2;P2;SDS_P1;SDS_P2;PMS_P1;PMS_P2;Temp;Humidity;BMP_temperature;BMP_pressure;BME280_temperature;BME280_humidity;BME280_pressure;Samples;Min_cycle;Max_cycle;Signal;HPM_P1;HPM_P2
2022/10/11 00:01:11;;;;;;;18.15;6.45;;;;;;;10.79;95.20;102325.81;5097985;27;1258307;-52
2022/10/11 00:03:54;;;;;;;15.05;5.35;;;;;;;10.81;95.04;102329.16;5071736;28;20390;-54
2022/10/11 00:06:42;;;;;;;12.90;5.57;;;;;;;10.79;94.42;102336.72;5070315;28;20785;-53
2022/10/11 00:09:24;;;;;;;14.05;5.97;;;;;;;10.75;94.58;102336.38;5070411;28;20402;-53
2022/10/11 00:12:08;;;;;;;11.45;4.93;;;;;;;10.74;94.84;102342.03;5063305;28;20388;-55
2022/10/11 00:14:51;;;;;;;12.93;5.03;;;;;;;10.71;94.20;102339.78;5055889;28;20399;-57
2022/10/11 00:17:34;;;;;;;13.45;4.95;;;;;;;10.68;93.65;102345.69;5097359;27;1244571;-55
2022/10/11 00:20:17;;;;;;;10.13;4.13;;;;;;;10.63;94.11;102344.50;5070482;28;20391;-54
2022/10/11 00:22:59;;;;;;;13.20;4.85;;;;;;;10.60;93.92;102347.66;5050663;28;20400;-54
2022/10/11 00:25:42;;;;;;;15.55;4.68;;;;;;;10.60;94.67;102344.94;5070292;28;20405;-57
2022/10/11 00:28:25;;;;;;;16.83;4.35;;;;;;;10.62;94.29;102345.56;5070114;28;20398;-54
2022/10/11 00:31:12;;;;;;;12.10;4.85;;;;;;;10.61;93.78;102343.91;5154281;27;20150;-53
2022/10/11 00:33:54;;;;;;;13.90;4.45;;;;;;;10.58;93.62;102340.78;5089384;28;20405;-56
2022/10/11 00:36:35;;;;;;;15.07;4.72;;;;;;;10.51;93.56;102349.06;5070533;28;20398;-53
2022/10/11 00:39:16;;;;;;;12.32;4.20;;;;;;;10.48;93.87;102349.53;5096520;27;1261592;-55
2022/10/11 00:41:59;;;;;;;15.60;4.65;;;;;;;10.47;94.17;102347.03;5102621;27;20140;-54
2022/10/11 00:44:49;;;;;;;10.77;4.07;;;;;;;10.46;94.20;102348.91;5070231;28;20401;-53
2022/10/11 00:47:33;;;;;;;11.75;4.30;;;;;;;10.47;94.04;102345.13;5063395;28;20402;-56
2022/10/11 00:50:16;;;;;;;13.88;4.88;;;;;;;10.50;94.40;102355.56;5111194;27;1258719;-56
2022/10/11 00:53:00;;;;;;;11.55;4.80;;;;;;;10.53;94.22;102359.72;5089734;27;1309440;-55
2022/10/11 00:55:49;;;;;;;17.38;4.65;;;;;;;10.52;93.89;102358.91;5076960;27;1951471;-55
2022/10/11 00:58:34;;;;;;;12.95;4.65;;;;;;;10.49;93.79;102359.38;5090691;27;20400;-56
2022/10/11 01:01:17;;;;;;;15.40;4.85;;;;;;;10.45;93.27;102358.16;5070477;28;20785;-53
2022/10/11 01:04:01;;;;;;;13.48;4.30;;;;;;;10.42;93.36;102364.06;5104013;27;20602;-54
2022/10/11 01:06:45;;;;;;;12.35;4.38;;;;;;;10.37;93.48;102361.22;5070579;28;20391;-57
2022/10/11 01:09:29;;;;;;;10.70;4.38;;;;;;;10.36;94.08;102359.53;5071504;28;20391;-53
2022/10/11 01:12:19;;;;;;;12.23;4.47;;;;;;;10.35;94.09;102366.88;5100020;27;20113;-54
2022/10/11 01:15:14;;;;;;;12.85;4.38;;;;;;;10.34;94.30;102367.09;5070399;28;20784;-52
2022/10/11 01:18:09;;;;;;;10.38;4.30;;;;;;;10.33;93.67;102365.44;5070256;28;20405;-56
2022/10/11 01:21:10;;;;;;;11.45;3.88;;;;;;;10.26;93.77;102367.38;5076872;28;20363;-57
2022/10/11 01:24:16;;;;;;;16.38;4.60;;;;;;;10.23;93.50;102364.03;5108647;27;20528;-54
2022/10/11 01:27:29;;;;;;;15.80;4.78;;;;;;;10.24;94.18;102356.69;5092789;27;1275131;-53
2022/10/11 01:30:32;;;;;;;13.02;4.28;;;;;;;10.23;93.38;102366.78;5160001;27;20333;-52
2022/10/11 01:33:21;;;;;;;11.50;4.57;;;;;;;10.23;93.21;102365.94;5072702;28;20832;-53
2022/10/11 01:36:13;;;;;;;10.75;4.80;;;;;;;10.22;93.24;102369.72;5091173;27;20387;-54
2022/10/11 01:39:06;;;;;;;15.00;4.60;;;;;;;10.18;93.24;102371.25;5154149;27;20131;-54
2022/10/11 01:41:52;;;;;;;12.68;4.53;;;;;;;10.10;92.96;102372.38;5152478;27;20013;-54
2022/10/11 01:44:39;;;;;;;11.38;4.20;;;;;;;10.02;93.07;102376.22;5110831;27;20956;-55
2022/10/11 01:47:23;;;;;;;16.23;4.82;;;;;;;9.98;93.07;102368.72;5070434;28;20403;-54
2022/10/11 01:50:30;;;;;;;15.23;5.10;;;;;;;9.89;93.33;102372.81;5091427;28;20392;-56
2022/10/11 01:53:21;;;;;;;11.20;4.57;;;;;;;9.84;93.83;102368.06;5105795;27;20117;-54
2022/10/11 01:56:15;;;;;;;10.77;4.40;;;;;;;9.82;93.78;102376.44;5070143;28;20402;-53
2022/10/11 01:59:21;;;;;;;15.43;5.13;;;;;;;9.80;94.02;102384.00;5094499;27;20114;-58
2022/10/11 02:02:11;;;;;;;13.52;4.10;;;;;;;9.76;93.72;102377.31;5070168;28;20395;-52
2022/10/11 02:05:01;;;;;;;12.13;4.45;;;;;;;9.77;93.69;102373.56;5102325;27;1291856;-53
2022/10/11 02:07:49;;;;;;;12.70;4.25;;;;;;;9.77;93.63;102384.44;5074567;28;20403;-54
2022/10/11 02:11:08;;;;;;;12.68;4.30;;;;;;;9.78;93.72;102380.66;5092797;27;20464;-55
2022/10/11 02:14:12;;;;;;;9.23;3.90;;;;;;;9.84;93.80;102383.53;5070152;27;1260427;-52
2022/10/11 02:17:03;;;;;;;15.95;4.75;;;;;;;9.88;92.47;102390.19;5070834;28;20386;-53
2022/10/11 02:19:50;;;;;;;15.13;4.68;;;;;;;9.85;92.04;102390.66;5110749;27;20786;-55
2022/10/11 02:22:37;;;;;;;10.50;4.05;;;;;;;9.81;92.41;102391.13;5090667;27;20405;-51
2022/10/11 02:25:23;;;;;;;14.23;4.38;;;;;;;9.80;92.65;102389.44;5097779;27;1266926;-55
2022/10/11 02:28:12;;;;;;;10.48;4.05;;;;;;;9.81;92.75;102393.84;5112150;27;20384;-55
2022/10/11 02:30:59;;;;;;;12.25;4.57;;;;;;;9.82;92.72;102397.38;5169690;27;19969;-56
2022/10/11 02:33:52;;;;;;;10.23;4.30;;;;;;;9.84;92.69;102394.41;5112526;27;20516;-54
2022/10/11 02:37:09;;;;;;;14.05;4.03;;;;;;;9.86;93.24;102397.75;5073230;27;1248496;-54
2022/10/11 02:40:31;;;;;;;11.77;4.00;;;;;;;9.89;93.50;102408.22;5075561;27;1965499;-56
2022/10/11 02:43:23;;;;;;;12.98;4.63;;;;;;;9.90;93.51;102399.81;5182205;27;19954;-53
2022/10/11 02:46:06;;;;;;;16.33;4.20;;;;;;;9.88;92.64;102409.25;5113769;27;1246097;-55
2022/10/11 02:48:51;;;;;;;10.88;4.32;;;;;;;9.83;92.47;102404.47;5112509;27;20394;-55
2022/10/11 02:51:37;;;;;;;10.75;4.38;;;;;;;9.81;92.69;102409.31;5158012;27;20045;-53
2022/10/11 02:54:21;;;;;;;13.25;4.45;;;;;;;9.78;92.74;102407.88;5071315;28;20391;-52
2022/10/11 02:57:03;;;;;;;12.77;4.38;;;;;;;9.75;92.35;102408.31;5099927;27;1271017;-54
2022/10/11 02:59:46;;;;;;;13.45;4.40;;;;;;;9.70;92.12;102410.06;5106217;27;1244808;-57
2022/10/11 03:02:30;;;;;;;13.38;4.35;;;;;;;9.64;92.26;102411.78;5127896;27;1251554;-55
2022/10/11 03:05:12;;;;;;;13.52;4.57;;;;;;;9.58;91.83;102412.69;5095374;27;1257897;-53
2022/10/11 03:07:55;;;;;;;12.30;4.65;;;;;;;9.49;92.40;102405.84;5071212;28;20395;-53
2022/10/11 03:10:41;;;;;;;15.95;4.63;;;;;;;9.42;92.57;102408.59;5112434;27;20395;-57
2022/10/11 03:13:23;;;;;;;16.77;4.60;;;;;;;9.39;92.81;102412.59;5105254;27;1251506;-55
2022/10/11 03:16:04;;;;;;;10.48;4.13;;;;;;;9.37;92.35;102403.81;5071031;28;20401;-56
2022/10/11 03:18:46;;;;;;;12.77;4.30;;;;;;;9.36;92.53;102402.16;5092403;27;20396;-57
2022/10/11 03:21:29;;;;;;;10.95;3.92;;;;;;;9.35;92.34;102408.66;5060923;28;20403;-56
2022/10/11 03:24:14;;;;;;;11.93;4.40;;;;;;;9.35;92.11;102411.38;5154319;27;20014;-55
2022/10/11 03:26:58;;;;;;;12.75;4.50;;;;;;;9.34;91.12;102414.31;5111539;27;20388;-53
2022/10/11 03:29:42;;;;;;;11.65;4.20;;;;;;;9.24;90.52;102417.53;5163905;27;20371;-53
2022/10/11 03:32:24;;;;;;;9.80;4.30;;;;;;;9.13;90.44;102410.06;5073608;28;20389;-55
2022/10/11 03:35:09;;;;;;;11.10;3.90;;;;;;;9.01;91.27;102419.97;5072446;28;21010;-54
2022/10/11 03:37:53;;;;;;;12.23;4.28;;;;;;;9.02;92.31;102424.34;5070660;28;20442;-51
2022/10/11 03:40:35;;;;;;;11.38;4.15;;;;;;;9.05;92.22;102421.22;5111472;27;20392;-58
2022/10/11 03:43:18;;;;;;;12.57;4.15;;;;;;;9.08;92.34;102421.59;5070673;28;20387;-49
2022/10/11 03:46:02;;;;;;;11.90;4.40;;;;;;;9.14;92.37;102428.06;5095080;27;20130;-52
2022/10/11 03:48:46;;;;;;;11.40;4.00;;;;;;;9.19;91.33;102428.25;5070563;28;20397;-53
2022/10/11 03:51:30;;;;;;;11.45;4.03;;;;;;;9.17;90.73;102427.63;5132086;27;20119;-53
2022/10/11 03:54:13;;;;;;;11.27;3.92;;;;;;;9.11;91.03;102431.22;5071642;28;20773;-53
2022/10/11 03:56:57;;;;;;;8.23;3.75;;;;;;;9.09;91.29;102430.59;5099964;27;1260871;-55
2022/10/11 03:59:41;;;;;;;15.02;4.22;;;;;;;9.08;91.27;102429.75;5114650;27;20594;-53
2022/10/11 04:02:24;;;;;;;13.05;4.07;;;;;;;9.10;91.48;102430.38;5089903;27;20381;-54
2022/10/11 04:05:09;;;;;;;10.13;4.38;;;;;;;9.13;91.11;102434.53;5090500;27;20122;-57
2022/10/11 04:07:54;;;;;;;13.27;4.17;;;;;;;9.11;90.32;102433.94;5158820;27;20037;-55
2022/10/11 04:10:36;;;;;;;10.55;4.15;;;;;;;9.04;90.60;102433.97;5069505;28;20834;-53
2022/10/11 04:13:19;;;;;;;10.88;3.97;;;;;;;9.01;90.98;102444.44;5089745;27;20409;-52
2022/10/11 04:16:03;;;;;;;10.30;4.25;;;;;;;9.00;90.81;102440.06;5069405;28;20892;-53
2022/10/11 04:18:47;;;;;;;14.23;5.13;;;;;;;8.98;90.99;102444.91;5111473;27;20396;-53
2022/10/11 04:21:30;;;;;;;13.48;4.65;;;;;;;9.00;91.01;102445.50;5083055;27;20391;-56
2022/10/11 04:24:14;;;;;;;14.45;4.85;;;;;;;8.99;90.25;102450.09;5070649;28;20395;-60
2022/10/11 04:27:00;;;;;;;14.77;4.60;;;;;;;8.86;90.60;102448.28;5070675;28;20922;-56
2022/10/11 04:29:42;;;;;;;11.38;4.47;;;;;;;8.81;91.41;102450.81;5088633;27;1303124;-58
2022/10/11 04:32:26;;;;;;;10.75;4.63;;;;;;;8.80;91.93;102454.56;5070193;28;20927;-60
2022/10/11 04:35:11;;;;;;;12.15;4.47;;;;;;;8.83;92.24;102456.88;5070312;28;20387;-58
2022/10/11 04:37:54;;;;;;;11.32;4.40;;;;;;;8.85;91.52;102462.94;5070072;28;20399;-58
2022/10/11 04:40:38;;;;;;;9.90;3.97;;;;;;;8.82;91.15;102457.91;5070303;28;20404;-60
2022/10/11 04:43:22;;;;;;;13.95;4.28;;;;;;;8.77;90.64;102468.59;5154523;27;20010;-59
2022/10/11 04:46:07;;;;;;;10.52;4.50;;;;;;;8.71;90.55;102466.75;5110881;27;20392;-62
2022/10/11 04:48:51;;;;;;;11.75;4.10;;;;;;;8.68;90.91;102478.03;5070135;28;20401;-60
2022/10/11 04:51:32;;;;;;;14.85;4.40;;;;;;;8.67;92.16;102466.34;5095640;27;1262565;-58
2022/10/11 04:54:17;;;;;;;11.48;4.60;;;;;;;8.67;91.72;102473.66;5163462;27;20146;-58
2022/10/11 04:57:01;;;;;;;11.20;4.20;;;;;;;8.64;91.10;102476.81;5069559;28;20414;-58
2022/10/11 04:59:44;;;;;;;11.65;4.38;;;;;;;8.57;91.56;102473.28;5098300;27;1290767;-60
2022/10/11 05:02:34;;;;;;;15.10;5.22;;;;;;;8.54;92.24;102485.41;5093925;27;1262487;-55
2022/10/11 05:05:18;;;;;;;13.00;4.63;;;;;;;8.52;91.84;102480.19;5114855;27;20132;-59
2022/10/11 05:08:01;;;;;;;9.65;4.63;;;;;;;8.53;92.58;102479.13;5162617;27;20158;-59
2022/10/11 05:11:15;;;;;;;14.18;5.32;;;;;;;8.56;93.16;102483.31;5132524;27;20357;-57
2022/10/11 05:13:59;;;;;;;10.30;4.40;;;;;;;8.58;92.27;102488.53;5112931;27;20578;-57
2022/10/11 05:16:42;;;;;;;12.20;4.63;;;;;;;8.58;91.66;102486.63;5118798;27;20529;-61
2022/10/11 05:19:23;;;;;;;17.02;4.82;;;;;;;8.58;91.87;102488.53;5104596;27;1276541;-60
2022/10/11 05:22:07;;;;;;;11.68;4.78;;;;;;;8.57;92.54;102492.31;5108322;27;20136;-60
2022/10/11 05:25:06;;;;;;;12.80;5.13;;;;;;;8.49;92.02;102493.34;5098671;27;1287977;-57
2022/10/11 05:27:49;;;;;;;11.90;5.18;;;;;;;8.41;92.25;102488.16;5110932;27;20412;-58
2022/10/11 05:30:33;;;;;;;13.32;5.35;;;;;;;8.38;93.10;102494.81;5070509;28;20390;-61
2022/10/11 05:33:15;;;;;;;11.20;4.95;;;;;;;8.34;92.09;102496.28;5108118;27;1265221;-60
2022/10/11 05:36:02;;;;;;;16.20;4.85;;;;;;;8.33;92.89;102503.59;5134895;27;20002;-58
2022/10/11 05:38:47;;;;;;;12.90;5.03;;;;;;;8.31;92.58;102494.81;5160190;27;19983;-61
2022/10/11 05:41:31;;;;;;;12.50;4.97;;;;;;;8.29;93.54;102493.38;5110735;27;20404;-61
2022/10/11 05:44:16;;;;;;;16.98;5.57;;;;;;;8.31;92.80;102499.44;5151767;27;20123;-61
2022/10/11 05:47:01;;;;;;;12.95;5.43;;;;;;;8.34;92.07;102504.44;5066732;28;20418;-59
2022/10/11 05:49:43;;;;;;;15.10;5.30;;;;;;;8.33;91.23;102505.50;5103049;27;1274688;-60
2022/10/11 05:52:27;;;;;;;9.60;4.55;;;;;;;8.29;91.62;102509.66;5067063;28;20387;-58
2022/10/11 05:55:09;;;;;;;11.85;4.28;;;;;;;8.32;92.39;102506.50;5102813;27;1288278;-54
2022/10/11 05:57:55;;;;;;;10.13;4.45;;;;;;;8.34;91.33;102509.84;5066943;28;20413;-59
2022/10/11 06:00:37;;;;;;;13.77;4.75;;;;;;;8.27;91.00;102504.47;5091954;27;1316837;-62
2022/10/11 06:03:19;;;;;;;12.32;4.68;;;;;;;8.26;91.57;102512.81;5102633;27;1281195;-57
2022/10/11 06:06:03;;;;;;;13.95;4.75;;;;;;;8.28;91.59;102521.59;4989354;28;20921;-60
2022/10/11 06:08:45;;;;;;;14.32;4.75;;;;;;;8.33;91.71;102513.63;5094530;27;1259575;-59
2022/10/11 06:11:28;;;;;;;8.68;4.43;;;;;;;8.40;91.88;102516.38;5166488;27;20018;-59
2022/10/11 06:14:22;;;;;;;12.95;4.60;;;;;;;8.45;90.81;102522.00;5087914;27;20407;-60
2022/10/11 06:17:05;;;;;;;9.97;4.03;;;;;;;8.44;90.80;102526.59;4408499;27;20896254;-58
2022/10/11 06:20:02;;;;;;;10.63;4.22;;;;;;;8.39;91.18;102533.66;5088364;27;20387;-59
2022/10/11 06:23:03;;;;;;;10.43;4.80;;;;;;;8.41;92.29;102540.59;5141323;27;20349;-53
2022/10/11 06:26:06;;;;;;;10.50;4.20;;;;;;;8.45;92.76;102533.69;5088100;27;20390;-55
2022/10/11 06:29:04;;;;;;;10.25;3.88;;;;;;;8.50;93.29;102542.03;5088735;27;20915;-54
2022/10/11 06:32:07;;;;;;;11.82;4.10;;;;;;;8.59;93.12;102544.56;5118199;27;20414;-54
2022/10/11 06:34:49;;;;;;;10.80;4.13;;;;;;;8.64;92.55;102547.47;4504279;27;17818369;-52
2022/10/11 06:37:55;;;;;;;10.55;4.00;;;;;;;8.66;92.28;102553.50;5133972;27;20901;-56
2022/10/11 06:40:36;;;;;;;10.73;3.97;;;;;;;8.68;92.86;102538.69;4526718;27;17843086;-52
2022/10/11 06:43:33;;;;;;;8.75;3.97;;;;;;;8.71;92.99;102549.13;5092204;27;20403;-56
2022/10/11 06:46:32;;;;;;;11.40;3.90;;;;;;;8.73;92.61;102552.47;5090835;27;20419;-50
2022/10/11 06:49:46;;;;;;;10.68;3.80;;;;;;;8.75;92.38;102554.94;5158649;27;20880;-56
2022/10/11 06:53:03;;;;;;;11.00;4.25;;;;;;;8.79;93.45;102555.38;5090508;28;19920;-55
2022/10/11 06:56:05;;;;;;;11.55;4.13;;;;;;;8.81;93.10;102564.16;5109346;27;20348;-56
2022/10/11 06:58:46;;;;;;;12.00;4.45;;;;;;;8.83;93.06;102557.44;4503331;27;18888360;-54
2022/10/11 07:01:28;;;;;;;11.38;4.00;;;;;;;8.86;93.02;102557.00;4524418;27;17850995;-52
2022/10/11 07:04:10;;;;;;;11.57;4.38;;;;;;;8.88;92.70;102563.06;4634250;27;14392571;-57
2022/10/11 07:07:11;;;;;;;11.95;4.28;;;;;;;8.89;93.36;102567.44;5091907;27;20494;-57
2022/10/11 07:10:06;;;;;;;11.25;4.45;;;;;;;8.89;92.97;102572.88;5092432;27;20391;-56
2022/10/11 07:12:49;;;;;;;15.40;3.97;;;;;;;8.90;93.59;102571.84;4626039;27;15062516;-56
2022/10/11 07:15:45;;;;;;;12.95;5.50;;;;;;;8.92;94.40;102572.47;5092729;27;20869;-56
2022/10/11 07:18:45;;;;;;;15.30;5.40;;;;;;;8.92;94.75;102577.91;5092199;27;20401;-54
2022/10/11 07:21:45;;;;;;;15.68;5.22;;;;;;;8.94;95.45;102575.78;5181893;27;20886;-54
2022/10/11 07:24:52;;;;;;;13.00;5.40;;;;;;;8.97;96.29;102585.41;5123039;27;21080;-54
2022/10/11 07:27:47;;;;;;;15.45;6.00;;;;;;;9.01;95.87;102588.53;5103498;27;20889;-54
2022/10/11 07:30:44;;;;;;;11.52;5.00;;;;;;;9.02;96.01;102582.03;5108333;27;20453;-54
2022/10/11 07:33:45;;;;;;;12.98;5.03;;;;;;;9.05;96.33;102587.06;5160503;27;20084;-53
2022/10/11 07:36:45;;;;;;;12.38;4.95;;;;;;;9.07;96.96;102585.81;5186725;27;21158;-53
2022/10/11 07:39:39;;;;;;;23.83;4.80;;;;;;;9.12;97.13;102587.88;5091473;27;20410;-54
2022/10/11 07:42:37;;;;;;;12.30;4.50;;;;;;;9.15;97.02;102596.44;5031677;28;20914;-52
2022/10/11 07:45:38;;;;;;;16.67;5.22;;;;;;;9.18;97.11;102601.44;5092690;27;20465;-54
2022/10/11 07:48:37;;;;;;;15.00;5.25;;;;;;;9.18;97.53;102593.28;5091552;27;20470;-55
2022/10/11 07:51:38;;;;;;;14.93;5.45;;;;;;;9.21;97.84;102600.16;5146291;27;20726;-55
2022/10/11 07:54:20;;;;;;;14.85;5.93;;;;;;;9.24;97.65;102601.66;4040058;27;30171492;-52
2022/10/11 07:57:17;;;;;;;13.60;4.80;;;;;;;9.26;98.22;102602.25;5092735;27;20893;-53
2022/10/11 08:00:19;;;;;;;15.77;5.07;;;;;;;9.27;98.16;102602.03;5094809;27;20423;-55
2022/10/11 08:03:29;;;;;;;16.15;5.05;;;;;;;9.33;98.34;102603.91;5088468;28;19960;-56
2022/10/11 08:06:31;;;;;;;13.35;4.93;;;;;;;9.40;98.23;102601.16;5103078;27;20419;-54
2022/10/11 08:09:32;;;;;;;13.07;4.90;;;;;;;9.45;98.17;102600.50;5161791;27;20118;-56
2022/10/11 08:12:13;;;;;;;15.40;4.70;;;;;;;9.48;97.98;102602.81;4635777;27;15052099;-53
2022/10/11 08:15:07;;;;;;;15.98;5.15;;;;;;;9.49;97.97;102609.91;5090965;27;20403;-55
2022/10/11 08:17:49;;;;;;;20.25;5.95;;;;;;;9.49;98.34;102615.34;4532701;27;17906372;-52
2022/10/11 08:20:32;;;;;;;15.52;5.18;;;;;;;9.50;99.70;102611.56;4597701;27;15055157;-55
2022/10/11 08:23:11;;;;;;;16.70;5.77;;;;;;;9.52;100.00;102609.47;4502886;27;18702299;-56
2022/10/11 08:26:10;;;;;;;13.00;5.53;;;;;;;9.52;100.00;102618.44;5091106;27;20451;-55
2022/10/11 08:29:14;;;;;;;16.92;5.43;;;;;;;9.54;100.00;102619.06;5126889;27;20463;-52
2022/10/11 08:32:11;;;;;;;17.67;5.75;;;;;;;9.59;100.00;102613.00;5092508;27;20411;-51
2022/10/11 08:35:09;;;;;;;17.80;5.22;;;;;;;9.65;100.00;102620.28;5091311;27;20392;-54
2022/10/11 08:38:12;;;;;;;20.83;5.65;;;;;;;9.68;100.00;102619.03;5127792;27;19984;-55
2022/10/11 08:41:40;;;;;;;16.05;5.70;;;;;;;9.70;100.00;102623.19;5134811;27;20793;-54
2022/10/11 08:45:02;;;;;;;18.95;5.93;;;;;;;9.71;100.00;102627.56;5121609;27;20176;-53
2022/10/11 08:48:22;;;;;;;17.77;5.78;;;;;;;9.73;100.00;102630.91;5111461;27;20192;-55
2022/10/11 08:51:50;;;;;;;15.52;6.53;;;;;;;9.78;100.00;102631.09;5091576;27;20496;-56
2022/10/11 08:54:58;;;;;;;20.58;6.28;;;;;;;9.81;100.00;102633.41;5129960;27;20884;-52
2022/10/11 08:57:40;;;;;;;22.15;5.88;;;;;;;9.82;100.00;102632.34;4627286;27;15060044;-55
2022/10/11 09:00:22;;;;;;;18.20;5.53;;;;;;;9.87;100.00;102633.56;4624238;27;15060608;-54
2022/10/11 09:03:39;;;;;;;15.68;4.85;;;;;;;9.89;100.00;102631.47;5082802;27;1252845;-55
2022/10/11 09:06:16;;;;;;;17.63;5.00;;;;;;;9.93;100.00;102643.56;5060891;28;20044;-51
2022/10/11 09:08:56;;;;;;;13.25;4.65;;;;;;;9.96;100.00;102633.09;5103021;28;20492;-54
2022/10/11 09:11:36;;;;;;;16.05;4.38;;;;;;;10.00;100.00;102637.03;5081131;28;20047;-56
2022/10/11 09:14:19;;;;;;;10.88;4.30;;;;;;;10.06;100.00;102640.78;5082290;28;20520;-54
2022/10/11 09:17:09;;;;;;;13.57;4.65;;;;;;;10.09;100.00;102637.63;5108152;28;20031;-53
2022/10/11 09:19:56;;;;;;;19.55;5.95;;;;;;;10.17;100.00;102640.09;5091218;28;20046;-54
2022/10/11 09:22:51;;;;;;;12.95;4.80;;;;;;;10.26;100.00;102637.91;5104273;28;20071;-56
2022/10/11 09:25:34;;;;;;;10.60;4.30;;;;;;;10.31;100.00;102645.44;5103127;28;20514;-54
2022/10/11 09:28:12;;;;;;;14.57;4.97;;;;;;;10.33;100.00;102644.19;5080416;28;20139;-54
2022/10/11 09:30:47;;;;;;;13.60;4.57;;;;;;;10.34;100.00;102639.56;5110499;28;20070;-58
2022/10/11 09:33:25;;;;;;;14.48;4.95;;;;;;;10.36;100.00;102635.53;5088485;28;20047;-54
2022/10/11 09:35:55;;;;;;;12.52;4.35;;;;;;;10.38;100.00;102646.25;5097111;28;20038;-53
2022/10/11 09:38:41;;;;;;;13.48;4.68;;;;;;;10.42;100.00;102640.13;5067213;28;20051;-54
2022/10/11 09:41:24;;;;;;;16.95;5.28;;;;;;;10.45;100.00;102644.28;5083441;28;20029;-52
2022/10/11 09:43:52;;;;;;;21.10;6.28;;;;;;;10.49;99.93;102642.81;5084082;28;20387;-52
2022/10/11 09:46:23;;;;;;;15.02;4.53;;;;;;;10.54;99.07;102634.78;5092152;28;20043;-54
2022/10/11 09:48:53;;;;;;;19.13;4.75;;;;;;;10.60;98.10;102641.22;5074591;28;20100;-56
2022/10/11 09:51:23;;;;;;;15.45;4.43;;;;;;;10.63;97.21;102638.91;5096834;28;20046;-52
2022/10/11 09:53:59;;;;;;;16.38;5.45;;;;;;;10.66;96.74;102638.44;5092485;28;20040;-54
2022/10/11 09:56:29;;;;;;;22.20;6.18;;;;;;;10.72;96.51;102642.16;5110683;28;20039;-57
2022/10/11 09:59:25;;;;;;;14.40;4.35;;;;;;;10.75;95.60;102646.31;5088688;28;20044;-54
2022/10/11 10:02:11;;;;;;;18.40;4.88;;;;;;;10.84;96.19;102639.53;5091641;28;20052;-55
2022/10/11 10:05:13;;;;;;;20.10;4.93;;;;;;;10.86;95.06;102637.41;5103836;28;20072;-53
2022/10/11 10:07:56;;;;;;;17.23;4.78;;;;;;;10.87;95.43;102639.06;5079745;28;20044;-54
2022/10/11 10:10:33;;;;;;;20.88;5.35;;;;;;;10.89;95.73;102642.41;5096353;28;20040;-54
2022/10/11 10:13:04;;;;;;;14.40;4.63;;;;;;;10.92;93.80;102643.84;5079621;28;20437;-53
2022/10/11 10:15:34;;;;;;;12.25;3.90;;;;;;;10.96;91.35;102642.34;5067888;28;20032;-54
2022/10/11 10:18:04;;;;;;;17.77;4.65;;;;;;;10.99;90.09;102642.75;5096107;28;20440;-53
2022/10/11 10:20:34;;;;;;;16.25;5.63;;;;;;;11.02;88.67;102645.00;5087538;28;20499;-54
2022/10/11 10:23:23;;;;;;;19.10;5.72;;;;;;;11.05;88.22;102641.81;5080332;28;20432;-53
2022/10/11 10:25:53;;;;;;;16.85;4.40;;;;;;;11.08;88.42;102638.63;5084168;28;20067;-53
2022/10/11 10:28:23;;;;;;;16.15;3.78;;;;;;;11.09;86.82;102637.59;5055704;28;20075;-56
2022/10/11 10:30:54;;;;;;;14.75;3.92;;;;;;;11.09;84.22;102632.13;5092417;28;20498;-54
2022/10/11 10:33:30;;;;;;;15.35;4.00;;;;;;;11.11;83.42;102634.63;5060555;28;20032;-54
2022/10/11 10:36:06;;;;;;;14.52;4.03;;;;;;;11.16;83.61;102639.41;5075960;28;20070;-54
2022/10/11 10:38:41;;;;;;;13.85;3.63;;;;;;;11.20;81.23;102632.44;5065909;28;20047;-54
2022/10/11 10:41:11;;;;;;;15.05;4.05;;;;;;;11.25;81.28;102629.84;5055447;28;20052;-55
2022/10/11 10:43:40;;;;;;;13.23;3.35;;;;;;;11.27;80.68;102639.47;5057996;28;20041;-55
2022/10/11 10:46:21;;;;;;;12.27;3.30;;;;;;;11.28;78.56;102635.69;5056624;28;20040;-54
2022/10/11 10:49:13;;;;;;;14.63;3.83;;;;;;;11.33;76.44;102635.03;5065091;28;20041;-53
2022/10/11 10:52:12;;;;;;;13.35;3.42;;;;;;;11.35;76.64;102630.13;5057729;28;20040;-56
2022/10/11 10:54:55;;;;;;;9.85;2.97;;;;;;;11.36;76.47;102626.38;5081099;28;20128;-55
2022/10/11 10:58:01;;;;;;;15.57;3.58;;;;;;;11.41;77.78;102628.41;5094795;28;20040;-52
2022/10/11 11:00:44;;;;;;;15.82;4.10;;;;;;;11.46;78.03;102626.66;5064444;28;20086;-57
2022/10/11 11:03:57;;;;;;;12.38;3.30;;;;;;;11.49;78.82;102619.91;5078817;28;20060;-57
2022/10/11 11:06:27;;;;;;;11.55;3.45;;;;;;;11.59;81.22;102627.53;5046027;28;20056;-53
2022/10/11 11:09:11;;;;;;;9.40;2.78;;;;;;;11.57;78.07;102626.94;5088352;28;20041;-56
2022/10/11 11:11:51;;;;;;;16.73;3.30;;;;;;;11.57;77.02;102627.78;5073861;28;20040;-57
2022/10/11 11:15:05;;;;;;;14.45;3.47;;;;;;;11.63;76.84;102620.56;5077057;28;20044;-54
2022/10/11 11:17:47;;;;;;;16.88;4.10;;;;;;;11.75;75.67;102615.97;5040005;28;20071;-56
2022/10/11 11:20:23;;;;;;;19.50;4.30;;;;;;;11.82;75.83;102619.44;5088898;28;20398;-54
2022/10/11 11:23:11;;;;;;;16.45;4.22;;;;;;;11.83;75.81;102607.44;5066001;28;20127;-56
2022/10/11 11:26:02;;;;;;;15.23;3.65;;;;;;;11.83;76.67;102601.97;5055090;28;20110;-55
2022/10/11 11:28:37;;;;;;;14.48;3.83;;;;;;;11.83;75.96;102610.19;5075468;28;20036;-56
2022/10/11 11:31:18;;;;;;;12.93;3.50;;;;;;;11.88;74.98;102601.31;5088246;28;20413;-56
2022/10/11 11:33:56;;;;;;;10.95;3.03;;;;;;;11.92;75.81;102603.34;5067631;28;20036;-57
2022/10/11 11:36:48;;;;;;;14.27;3.35;;;;;;;11.94;75.67;102593.03;5058749;28;20098;-55
2022/10/11 11:39:16;;;;;;;15.35;3.53;;;;;;;11.98;75.66;102593.41;5043330;28;20405;-50
2022/10/11 11:41:46;;;;;;;13.02;3.88;;;;;;;12.01;75.45;102594.84;5058045;28;20051;-56
2022/10/11 11:44:17;;;;;;;13.45;2.95;;;;;;;12.05;74.61;102585.09;5068714;28;20494;-56
2022/10/11 11:46:56;;;;;;;12.02;3.28;;;;;;;12.12;75.30;102591.28;5076444;28;20398;-55
2022/10/11 11:49:55;;;;;;;15.88;3.78;;;;;;;12.17;75.23;102591.44;5085482;28;20052;-54
2022/10/11 11:52:40;;;;;;;14.07;3.42;;;;;;;12.27;75.02;102588.94;5072541;28;20044;-55
2022/10/11 11:55:14;;;;;;;12.85;3.60;;;;;;;12.29;73.09;102580.50;5089961;28;20050;-57
2022/10/11 11:58:07;;;;;;;11.60;3.33;;;;;;;12.32;72.76;102583.59;5065634;28;20513;-56
2022/10/11 12:01:03;;;;;;;16.05;4.05;;;;;;;12.32;73.02;102578.13;5056124;28;20118;-53
2022/10/11 12:03:45;;;;;;;15.73;3.60;;;;;;;12.43;72.43;102575.63;5056291;28;20075;-55
2022/10/11 12:06:13;;;;;;;19.65;4.13;;;;;;;12.50;72.00;102574.44;5053597;28;20049;-53
2022/10/11 12:08:47;;;;;;;14.95;4.05;;;;;;;12.51;72.36;102573.38;5094023;28;20032;-53
2022/10/11 12:11:24;;;;;;;11.55;2.85;;;;;;;12.52;72.76;102572.31;5076016;28;20561;-52
2022/10/11 12:13:53;;;;;;;14.43;3.33;;;;;;;12.49;72.08;102569.22;5057496;28;20045;-53
2022/10/11 12:16:22;;;;;;;14.73;3.70;;;;;;;12.44;70.88;102566.38;5066999;28;20044;-53
2022/10/11 12:18:51;;;;;;;14.82;3.35;;;;;;;12.36;71.56;102565.66;5059352;28;20036;-55
2022/10/11 12:21:36;;;;;;;13.38;3.40;;;;;;;12.31;72.88;102562.81;5068259;28;20380;-52
2022/10/11 12:24:19;;;;;;;12.45;3.25;;;;;;;12.29;72.42;102561.34;5077285;28;20040;-53
2022/10/11 12:26:55;;;;;;;15.73;3.40;;;;;;;12.34;72.11;102562.34;5070805;28;20056;-54
2022/10/11 12:29:45;;;;;;;11.70;3.53;;;;;;;12.41;72.34;102554.03;5075328;28;20040;-55
2022/10/11 12:32:37;;;;;;;15.20;3.65;;;;;;;12.47;71.76;102555.78;5069163;28;20105;-53
2022/10/11 12:35:30;;;;;;;14.50;3.40;;;;;;;12.60;71.20;102557.44;5074584;28;20040;-55
2022/10/11 12:38:18;;;;;;;11.13;3.35;;;;;;;12.69;70.80;102556.00;5075070;28;20040;-57
2022/10/11 12:40:48;;;;;;;13.70;3.00;;;;;;;12.74;70.55;102561.59;5055705;28;20037;-52
2022/10/11 12:43:18;;;;;;;12.15;3.17;;;;;;;12.79;70.87;102556.25;5070372;28;20465;-54
2022/10/11 12:45:47;;;;;;;19.05;3.88;;;;;;;12.77;70.99;102563.00;5093438;28;20044;-54
2022/10/11 12:48:38;;;;;;;14.57;3.67;;;;;;;12.74;70.75;102556.13;5075547;28;20405;-56
2022/10/11 12:51:40;;;;;;;14.07;3.15;;;;;;;12.71;70.75;102555.78;5071695;28;20044;-52